Time;durP1;ratioP1;P1;durP2;ratioP2;P2;SDS_P1;SDS_P2;PMS_P1;PMS_P2;Temp;Humidity;BMP_temperature;BMP_pressure;BME280_temperature;BME280_humidity;BME280_pressure;Samples;Min_cycle;Max_cycle;Signal;HPM_P1;HPM_P2
2021/04/06 00:01:15;;;;;;;;;;;;;;;18.07;28.52;99567.37;4417640;32;19954;-60
2021/04/06 00:03:40;;;;;;;;;;;;;;;17.95;28.68;99563.72;4418820;32;19961;-60
2021/04/06 00:06:06;;;;;;;;;;;;;;;18.01;28.62;99554.13;4417775;32;20321;-60
2021/04/06 00:08:32;;;;;;;;;;;;;;;18.03;28.60;99555.03;4417210;32;19965;-60
2021/04/06 00:10:58;;;;;;;;;;;;;;;18.04;28.63;99552.44;4417349;32;19938;-60
2021/04/06 00:13:24;;;;;;;;;;;;;;;18.08;28.46;99543.69;4418477;32;19946;-60
2021/04/06 00:15:50;;;;;;;;;;;;;;;18.05;28.56;99538.38;4418225;32;20007;-60
2021/04/06 00:18:16;;;;;;;;;;;;;;;18.09;28.45;99545.44;4417336;32;19965;-60
2021/04/06 00:20:42;;;;;;;;;;;;;;;18.14;28.43;99550.75;4418930;32;19958;-60
2021/04/06 00:23:08;;;;;;;;;;;;;;;18.06;28.51;99544.53;4418280;32;19957;-60
2021/04/06 00:25:34;;;;;;;;;;;;;;;18.03;28.53;99544.50;4418054;32;19962;-60
2021/04/06 00:27:59;;;;;;;;;;;;;;;18.07;28.50;99543.66;4417964;32;19950;-60
2021/04/06 00:30:25;;;;;;;;;;;;;;;18.03;28.55;99544.50;4417632;32;20360;-60
2021/04/06 00:32:51;;;;;;;;;;;;;;;18.05;28.49;99540.12;4418033;32;20042;-60
2021/04/06 00:35:17;;;;;;;;;;;;;;;18.03;28.60;99539.25;4418181;32;19972;-60
2021/04/06 00:37:43;;;;;;;;;;;;;;;18.10;28.43;99535.81;4418345;32;19971;-60
2021/04/06 00:40:09;;;;;;;;;;;;;;;18.09;28.47;99545.44;4416430;32;20011;-60
2021/04/06 00:42:35;;;;;;;;;;;;;;;18.08;28.43;99530.50;4417497;32;19997;-60
2021/04/06 00:45:01;;;;;;;;;;;;;;;18.10;28.40;99535.81;4417302;32;20364;-60
2021/04/06 00:47:27;;;;;;;;;;;;;;;18.06;28.51;99520.81;4416517;32;19942;-59
2021/04/06 00:49:53;;;;;;;;;;;;;;;18.06;28.49;99520.81;4418429;32;19942;-60
2021/04/06 00:52:18;;;;;;;;;;;;;;;18.05;28.43;99519.94;4416502;32;19968;-60
2021/04/06 00:54:44;;;;;;;;;;;;;;;18.12;28.32;99508.56;4417544;32;19991;-60
2021/04/06 00:57:10;;;;;;;;;;;;;;;18.17;28.19;99495.44;4415889;32;19980;-60
2021/04/06 00:59:36;;;;;;;;;;;;;;;18.10;28.30;99509.44;4416862;32;19946;-60
2021/04/06 01:02:02;;;;;;;;;;;;;;;18.07;28.33;99504.13;4417666;32;19945;-60
2021/04/06 01:04:28;;;;;;;;;;;;;;;18.10;28.24;99504.19;4417608;32;23311;-60
2021/04/06 01:06:54;;;;;;;;;;;;;;;18.14;28.16;99484.88;4419707;32;20003;-60
2021/04/06 01:09:20;;;;;;;;;;;;;;;18.20;28.00;99490.19;4420834;32;19954;-58
2021/04/06 01:11:46;;;;;;;;;;;;;;;18.11;28.06;99490.13;4420875;32;20393;-60
2021/04/06 01:14:11;;;;;;;;;;;;;;;18.12;28.08;99490.13;4421085;32;19949;-60
2021/04/06 01:16:37;;;;;;;;;;;;;;;18.11;28.10;99490.13;4420220;32;19958;-60
2021/04/06 01:19:03;;;;;;;;;;;;;;;18.21;27.94;99484.06;4420516;32;19981;-60
2021/04/06 01:21:29;;;;;;;;;;;;;;;18.25;27.91;99490.22;4421126;32;19954;-60
2021/04/06 01:23:55;;;;;;;;;;;;;;;18.10;28.03;99493.66;4421472;32;19973;-60
2021/04/06 01:26:21;;;;;;;;;;;;;;;18.19;27.89;99482.28;4420028;32;20408;-60
2021/04/06 01:28:47;;;;;;;;;;;;;;;18.23;27.83;99490.22;4420573;32;20015;-60
2021/04/06 01:31:13;;;;;;;;;;;;;;;18.22;27.82;99477.91;4419896;32;19934;-60
2021/04/06 01:33:38;;;;;;;;;;;;;;;18.17;27.78;99474.34;4420868;32;20287;-60
2021/04/06 01:36:04;;;;;;;;;;;;;;;18.16;27.88;99471.72;4420375;32;19962;-60
2021/04/06 01:38:30;;;;;;;;;;;;;;;18.11;27.89;99484.88;4420744;32;20319;-60
2021/04/06 01:40:56;;;;;;;;;;;;;;;18.12;27.81;99484.00;4420663;32;19995;-60
2021/04/06 01:43:25;;;;;;;;;;;;;;;18.06;27.87;99476.91;4420081;32;19950;-60
2021/04/06 01:45:53;;;;;;;;;;;;;;;18.14;27.80;99463.78;4419904;32;19954;-60
2021/04/06 01:48:19;;;;;;;;;;;;;;;18.21;27.74;99449.81;4420036;32;19980;-60
2021/04/06 01:50:45;;;;;;;;;;;;;;;18.25;27.56;99456.84;4420683;32;19966;-59
2021/04/06 01:53:11;;;;;;;;;;;;;;;18.25;27.59;99462.13;4419066;32;20346;-60
2021/04/06 01:55:39;;;;;;;;;;;;;;;18.24;27.60;99454.19;4405195;32;19972;-60
2021/04/06 01:58:06;;;;;;;;;;;;;;;18.21;27.64;99455.06;4404646;32;19943;-60
2021/04/06 02:03:37;;;;;;;;;;;;;;;18.29;27.52;99451.59;4387297;32;19973;-60
2021/04/06 02:06:03;;;;;;;;;;;;;;;18.24;27.53;99439.28;4413173;32;20361;-59
2021/04/06 02:08:30;;;;;;;;;;;;;;;18.23;27.59;99426.97;4418816;32;19938;-60
2021/04/06 02:10:56;;;;;;;;;;;;;;;18.19;27.61;99435.72;4418464;32;19981;-60
2021/04/06 02:13:22;;;;;;;;;;;;;;;18.24;27.49;99434.00;4419105;32;19938;-60
2021/04/06 02:15:48;;;;;;;;;;;;;;;18.30;27.43;99434.91;4419159;32;20296;-60
2021/04/06 02:18:14;;;;;;;;;;;;;;;18.30;27.37;99441.06;4419319;32;20565;-60
2021/04/06 02:20:40;;;;;;;;;;;;;;;18.30;27.39;99446.34;4420177;32;20055;-60
2021/04/06 02:23:06;;;;;;;;;;;;;;;18.20;27.51;99442.75;4419765;32;19968;-60
2021/04/06 02:25:32;;;;;;;;;;;;;;;18.22;27.52;99443.66;4419774;32;19980;-60
2021/04/06 02:27:58;;;;;;;;;;;;;;;18.24;27.42;99433.09;4419469;32;20282;-60
2021/04/06 02:30:30;;;;;;;;;;;;;;;18.21;27.46;99428.72;4418718;32;19966;-60
2021/04/06 02:32:56;;;;;;;;;;;;;;;18.21;27.45;99444.53;4420084;32;19997;-60
2021/04/06 02:35:22;;;;;;;;;;;;;;;18.12;27.56;99431.28;4419973;32;20235;-60
2021/04/06 02:37:48;;;;;;;;;;;;;;;18.18;27.49;99433.94;4419468;32;19949;-60
2021/04/06 02:40:13;;;;;;;;;;;;;;;18.05;27.69;99442.66;4419179;32;19945;-60
2021/04/06 02:42:39;;;;;;;;;;;;;;;18.14;27.48;99431.28;4419658;32;19954;-60
2021/04/06 02:45:08;;;;;;;;;;;;;;;18.11;27.53;99429.53;4418461;32;19951;-60
2021/04/06 02:47:36;;;;;;;;;;;;;;;18.21;27.46;99431.34;4419451;32;19966;-60
2021/04/06 02:50:02;;;;;;;;;;;;;;;18.24;27.32;99439.28;4420121;32;19965;-60
2021/04/06 02:52:27;;;;;;;;;;;;;;;18.13;27.49;99451.50;4419014;32;20365;-60
2021/04/06 02:54:53;;;;;;;;;;;;;;;18.22;27.38;99445.41;4413731;32;19994;-60
2021/04/06 02:57:19;;;;;;;;;;;;;;;18.26;27.28;99455.97;4402292;32;19954;-60
2021/04/06 02:59:46;;;;;;;;;;;;;;;18.18;27.41;99455.03;4407992;32;19972;-60
2021/04/06 03:02:12;;;;;;;;;;;;;;;18.20;27.38;99455.06;4419204;32;20270;-60
2021/04/06 03:04:37;;;;;;;;;;;;;;;18.24;27.36;99455.09;4418481;32;19997;-60
2021/04/06 03:07:03;;;;;;;;;;;;;;;18.18;27.41;99460.31;4418495;32;19950;-59
2021/04/06 03:09:29;;;;;;;;;;;;;;;18.14;27.48;99469.06;4417714;32;20315;-59
2021/04/06 03:11:55;;;;;;;;;;;;;;;18.03;27.64;99454.94;4419610;32;19973;-60
2021/04/06 03:14:21;;;;;;;;;;;;;;;18.08;27.61;99463.75;4417955;32;19954;-60
2021/04/06 03:16:47;;;;;;;;;;;;;;;18.04;27.67;99452.31;4403601;32;19990;-59
2021/04/06 03:19:13;;;;;;;;;;;;;;;18.11;27.58;99450.59;4404474;32;19943;-60
2021/04/06 03:21:39;;;;;;;;;;;;;;;18.07;27.63;99440.91;4417795;32;19960;-60
2021/04/06 03:24:04;;;;;;;;;;;;;;;17.93;27.86;99444.28;4418395;32;20395;-60
2021/04/06 03:26:30;;;;;;;;;;;;;;;17.97;27.82;99451.38;4418770;32;19957;-60
2021/04/06 03:28:56;;;;;;;;;;;;;;;17.95;27.90;99442.53;4418356;32;20047;-60
2021/04/06 03:31:22;;;;;;;;;;;;;;;17.90;28.00;99439.00;4417985;32;19951;-60
2021/04/06 03:33:48;;;;;;;;;;;;;;;17.81;28.16;99444.19;4418665;32;20330;-60
2021/04/06 03:36:14;;;;;;;;;;;;;;;17.86;28.09;99439.84;4418929;32;19983;-60
2021/04/06 03:38:40;;;;;;;;;;;;;;;17.93;27.96;99440.78;4417881;32;19943;-60
2021/04/06 03:41:06;;;;;;;;;;;;;;;17.91;27.97;99438.13;4417609;32;19954;-60
2021/04/06 03:43:31;;;;;;;;;;;;;;;17.85;28.05;99435.47;4416433;32;19987;-60
2021/04/06 03:45:57;;;;;;;;;;;;;;;17.83;28.11;99439.81;4418295;32;19957;-60
2021/04/06 03:48:23;;;;;;;;;;;;;;;17.83;28.21;99438.06;4417662;32;20158;-60
2021/04/06 03:50:49;;;;;;;;;;;;;;;17.81;28.15;99444.19;4418827;32;20321;-60
2021/04/06 03:53:15;;;;;;;;;;;;;;;17.83;28.14;99445.06;4416916;32;20265;-60
2021/04/06 03:55:41;;;;;;;;;;;;;;;17.74;28.37;99442.41;4414799;32;19947;-60
2021/04/06 03:58:13;;;;;;;;;;;;;;;17.76;28.33;99456.44;4401501;32;19994;-60
2021/04/06 04:00:39;;;;;;;;;;;;;;;17.75;28.31;99449.41;4406098;32;19958;-60
2021/04/06 04:03:05;;;;;;;;;;;;;;;17.68;28.46;99453.75;4418759;32;19983;-60
2021/04/06 04:05:31;;;;;;;;;;;;;;;17.69;28.42;99461.66;4416888;32;19945;-60
2021/04/06 04:07:57;;;;;;;;;;;;;;;17.77;28.31;99458.22;4417900;32;20023;-60
2021/04/06 04:10:23;;;;;;;;;;;;;;;17.82;28.27;99451.22;4418503;32;20033;-60
2021/04/06 04:12:49;;;;;;;;;;;;;;;17.89;28.22;99454.78;4418187;32;19950;-60
2021/04/06 04:15:14;;;;;;;;;;;;;;;17.88;28.18;99455.66;4417244;32;20362;-60
2021/04/06 04:17:40;;;;;;;;;;;;;;;17.91;28.16;99455.69;4402574;32;19978;-60
2021/04/06 04:20:06;;;;;;;;;;;;;;;17.84;28.21;99455.62;4402389;32;19992;-60
2021/04/06 04:22:32;;;;;;;;;;;;;;;17.87;28.20;99460.06;4417352;32;20017;-60
2021/04/06 04:24:58;;;;;;;;;;;;;;;17.84;28.26;99457.38;4417228;32;20036;-60
2021/04/06 04:27:24;;;;;;;;;;;;;;;17.83;28.24;99464.41;4417202;32;20092;-60
2021/04/06 04:29:50;;;;;;;;;;;;;;;17.81;28.28;99465.25;4417010;32;19981;-60
2021/04/06 04:32:16;;;;;;;;;;;;;;;17.83;28.34;99460.87;4417124;32;19982;-60
2021/04/06 04:34:41;;;;;;;;;;;;;;;17.82;28.28;99461.75;4418568;32;19946;-60
2021/04/06 04:37:07;;;;;;;;;;;;;;;17.82;28.28;99462.66;4417468;32;20755;-60
2021/04/06 04:39:33;;;;;;;;;;;;;;;17.92;28.12;99458.31;4418261;32;19950;-60
2021/04/06 04:41:59;;;;;;;;;;;;;;;17.79;28.35;99456.47;4409275;32;19958;-60
2021/04/06 04:44:25;;;;;;;;;;;;;;;17.77;28.42;99455.56;4401574;32;19969;-60
2021/04/06 04:46:51;;;;;;;;;;;;;;;17.78;28.39;99458.25;4408847;32;19956;-60
2021/04/06 04:49:17;;;;;;;;;;;;;;;17.75;28.41;99457.31;4417860;32;19987;-60
2021/04/06 04:51:42;;;;;;;;;;;;;;;17.77;28.40;99447.69;4413107;32;19965;-60
2021/04/06 04:54:08;;;;;;;;;;;;;;;17.70;28.59;99452.00;4410635;32;20557;-60
2021/04/06 04:56:34;;;;;;;;;;;;;;;17.83;28.30;99458.25;4418189;32;19954;-60
2021/04/06 04:59:00;;;;;;;;;;;;;;;17.95;28.07;99468.00;4416146;32;19950;-59
2021/04/06 05:01:26;;;;;;;;;;;;;;;17.90;28.17;99467.06;4416975;32;20365;-60
2021/04/06 05:03:52;;;;;;;;;;;;;;;17.78;28.31;99458.25;4417831;32;19943;-60
2021/04/06 05:06:18;;;;;;;;;;;;;;;17.84;28.29;99460.00;4417083;32;19989;-60
2021/04/06 05:08:44;;;;;;;;;;;;;;;17.84;28.28;99468.81;4416743;32;19991;-60
2021/04/06 05:11:09;;;;;;;;;;;;;;;17.86;28.23;99471.47;4417513;32;19957;-59
2021/04/06 05:13:35;;;;;;;;;;;;;;;17.88;28.18;99463.56;4416158;32;20311;-59
2021/04/06 05:16:01;;;;;;;;;;;;;;;17.86;28.19;99463.56;4417106;32;19958;-60
2021/04/06 05:18:27;;;;;;;;;;;;;;;17.85;28.27;99464.44;4416252;32;19957;-60
2021/04/06 05:20:53;;;;;;;;;;;;;;;17.88;28.21;99467.09;4415149;32;19942;-60
2021/04/06 05:23:19;;;;;;;;;;;;;;;17.80;28.37;99466.13;4416471;32;20323;-60
2021/04/06 05:25:46;;;;;;;;;;;;;;;17.84;28.25;99465.28;4417855;32;19981;-60
2021/04/06 05:28:12;;;;;;;;;;;;;;;17.74;28.42;99468.72;4416594;32;19976;-60
2021/04/06 05:30:38;;;;;;;;;;;;;;;17.78;28.39;99470.50;4418189;32;20001;-60
2021/04/06 05:33:04;;;;;;;;;;;;;;;17.78;28.43;99465.25;4416226;32;20013;-59
2021/04/06 05:35:30;;;;;;;;;;;;;;;17.74;28.45;99466.97;4416216;32;19985;-60
2021/04/06 05:37:56;;;;;;;;;;;;;;;17.86;28.29;99474.09;4417311;32;19976;-60
2021/04/06 05:40:21;;;;;;;;;;;;;;;17.77;28.48;99476.66;4417116;32;19991;-60
2021/04/06 05:42:48;;;;;;;;;;;;;;;17.86;28.26;99479.38;4417062;32;19964;-60
2021/04/06 05:45:14;;;;;;;;;;;;;;;17.94;28.15;99477.66;4415472;32;20373;-60
2021/04/06 05:47:39;;;;;;;;;;;;;;;17.89;28.23;99479.38;4416889;32;19951;-60
2021/04/06 05:50:05;;;;;;;;;;;;;;;17.95;28.16;99487.31;4417604;32;19952;-60
2021/04/06 05:52:31;;;;;;;;;;;;;;;17.94;28.18;99476.78;4413879;32;19966;-60
2021/04/06 05:54:57;;;;;;;;;;;;;;;17.97;28.14;99482.97;4415788;32;20398;-60
2021/04/06 05:57:23;;;;;;;;;;;;;;;17.91;28.25;99485.53;4418745;32;20096;-60
2021/04/06 05:59:49;;;;;;;;;;;;;;;17.92;28.29;99489.06;4418250;32;20294;-60
2021/04/06 06:02:15;;;;;;;;;;;;;;;17.86;28.35;99484.63;4419676;32;20300;-60
2021/04/06 06:04:41;;;;;;;;;;;;;;;17.90;28.32;99480.25;4419914;32;19969;-60
2021/04/06 06:07:07;;;;;;;;;;;;;;;17.77;28.47;99485.41;4419651;32;20013;-60
2021/04/06 06:09:33;;;;;;;;;;;;;;;17.86;28.38;99497.81;4418484;32;19962;-59
2021/04/06 06:11:59;;;;;;;;;;;;;;;17.86;28.40;99500.44;4419199;32;19934;-60
2021/04/06 06:14:25;;;;;;;;;;;;;;;17.84;28.43;99504.78;4418403;32;19954;-60
2021/04/06 06:16:51;;;;;;;;;;;;;;;17.72;28.64;99504.66;4418322;32;19958;-60
2021/04/06 06:19:17;;;;;;;;;;;;;;;17.77;28.60;99511.75;4410121;32;20003;-58
2021/04/06 06:21:43;;;;;;;;;;;;;;;17.78;28.58;99507.38;4402108;32;20405;-60
2021/04/06 06:24:09;;;;;;;;;;;;;;;17.76;28.61;99503.84;4417147;32;20339;-59
2021/04/06 06:26:35;;;;;;;;;;;;;;;17.73;28.64;99504.69;4416424;32;19953;-60
2021/04/06 06:29:01;;;;;;;;;;;;;;;17.77;28.60;99501.22;4414921;32;19957;-59
2021/04/06 06:31:27;;;;;;;;;;;;;;;17.84;28.53;99516.22;4415991;32;19962;-60
2021/04/06 06:33:53;;;;;;;;;;;;;;;17.77;28.65;99518.78;4417590;32;19958;-60
2021/04/06 06:36:19;;;;;;;;;;;;;;;17.78;28.69;99512.63;4416353;32;20011;-60
2021/04/06 06:38:45;;;;;;;;;;;;;;;17.79;28.63;99515.31;4416057;32;20014;-60
2021/04/06 06:41:11;;;;;;;;;;;;;;;17.73;28.84;99504.69;4414281;32;19949;-60
2021/04/06 06:43:37;;;;;;;;;;;;;;;17.80;28.77;99505.63;4416229;32;20432;-60
2021/04/06 06:46:03;;;;;;;;;;;;;;;17.87;28.66;99512.72;4417871;32;19950;-60
2021/04/06 06:48:29;;;;;;;;;;;;;;;17.95;28.56;99499.63;4416694;32;20482;-60
2021/04/06 06:50:55;;;;;;;;;;;;;;;17.94;28.64;99509.25;4417292;32;20577;-60
2021/04/06 06:53:21;;;;;;;;;;;;;;;17.96;28.66;99501.38;4417140;32;19977;-59
2021/04/06 06:55:48;;;;;;;;;;;;;;;18.02;28.62;99505.81;4417627;32;19993;-59
2021/04/06 06:58:13;;;;;;;;;;;;;;;17.91;28.81;99497.84;4416438;32;19966;-59
2021/04/06 07:00:40;;;;;;;;;;;;;;;18.00;28.64;99495.25;4416684;32;20450;-59
2021/04/06 07:03:06;;;;;;;;;;;;;;;17.93;28.81;99501.38;4416520;32;20306;-60
2021/04/06 07:05:32;;;;;;;;;;;;;;;18.05;28.64;99497.97;4416966;32;20009;-60
2021/04/06 07:07:58;;;;;;;;;;;;;;;18.00;28.74;99497.03;4417412;32;19993;-60
2021/04/06 07:10:24;;;;;;;;;;;;;;;18.00;28.77;99507.56;4416879;32;19958;-60
2021/04/06 07:12:50;;;;;;;;;;;;;;;17.98;28.80;99504.91;4417028;32;19969;-58
2021/04/06 07:15:16;;;;;;;;;;;;;;;17.97;28.77;99506.69;4416656;32;19954;-60
2021/04/06 07:17:42;;;;;;;;;;;;;;;17.98;28.77;99511.06;4416286;32;20340;-60
2021/04/06 07:20:08;;;;;;;;;;;;;;;18.07;28.71;99526.09;4414674;32;19958;-60
2021/04/06 07:22:34;;;;;;;;;;;;;;;18.11;28.60;99516.47;4417375;32;20012;-60
2021/04/06 07:25:00;;;;;;;;;;;;;;;18.13;28.59;99522.63;4417032;32;19946;-60
2021/04/06 07:27:26;;;;;;;;;;;;;;;18.09;28.62;99529.63;4415595;32;19954;-60
2021/04/06 07:29:51;;;;;;;;;;;;;;;18.10;28.61;99526.13;4416949;32;20048;-60
2021/04/06 07:32:17;;;;;;;;;;;;;;;18.05;28.73;99534.84;4416863;32;20324;-60
2021/04/06 07:34:43;;;;;;;;;;;;;;;18.06;28.71;99520.81;4416471;32;19954;-60
2021/04/06 07:37:09;;;;;;;;;;;;;;;18.15;28.58;99525.25;4414728;32;19962;-60
2021/04/06 07:39:35;;;;;;;;;;;;;;;18.25;28.43;99522.75;4417269;32;19984;-60
2021/04/06 07:42:01;;;;;;;;;;;;;;;18.31;28.34;99518.38;4415621;32;19964;-59
2021/04/06 07:44:29;;;;;;;;;;;;;;;18.30;28.40;99521.87;4416288;32;20018;-58
2021/04/06 07:46:55;;;;;;;;;;;;;;;18.33;28.28;99517.53;4415436;32;20739;-60
2021/04/06 07:49:21;;;;;;;;;;;;;;;18.38;28.28;99517.56;4415865;32;19953;-59
2021/04/06 07:51:47;;;;;;;;;;;;;;;18.44;28.15;99514.94;4417235;32;19993;-57
2021/04/06 07:54:13;;;;;;;;;;;;;;;18.29;28.40;99504.31;4415748;32;19951;-59
2021/04/06 07:56:38;;;;;;;;;;;;;;;18.30;28.42;99501.69;4415781;32;19958;-59
2021/04/06 07:59:04;;;;;;;;;;;;;;;18.23;28.52;99513.94;4413656;32;19954;-60
2021/04/06 08:01:30;;;;;;;;;;;;;;;18.30;28.41;99512.22;4415143;32;20339;-59
2021/04/06 08:03:58;;;;;;;;;;;;;;;18.31;28.43;99514.00;4414028;32;19964;-59
2021/04/06 08:06:23;;;;;;;;;;;;;;;18.30;28.45;99519.25;4413167;32;20796;-60
2021/04/06 08:08:49;;;;;;;;;;;;;;;18.36;28.38;99520.16;4411665;32;19954;-59
2021/04/06 08:11:15;;;;;;;;;;;;;;;18.47;28.22;99520.25;4413667;32;20641;-59
2021/04/06 08:13:41;;;;;;;;;;;;;;;18.59;28.06;99518.56;4415256;32;19972;-57
2021/04/06 08:16:07;;;;;;;;;;;;;;;18.58;28.10;99522.06;4413495;32;20443;-58
2021/04/06 08:18:33;;;;;;;;;;;;;;;18.57;28.10;99520.28;4413117;32;20001;-60
2021/04/06 08:20:59;;;;;;;;;;;;;;;18.61;28.06;99524.75;4415444;32;20385;-58
2021/04/06 08:23:25;;;;;;;;;;;;;;;18.60;28.07;99523.84;4415973;32;19962;-60
2021/04/06 08:25:51;;;;;;;;;;;;;;;18.69;27.90;99515.09;4416187;32;20002;-59
2021/04/06 08:28:17;;;;;;;;;;;;;;;18.74;27.87;99525.69;4414667;32;20000;-60
2021/04/06 08:30:43;;;;;;;;;;;;;;;18.75;27.88;99530.97;4415986;32;19961;-59
2021/04/06 08:33:10;;;;;;;;;;;;;;;18.75;27.91;99520.41;4416019;32;19958;-59
2021/04/06 08:35:36;;;;;;;;;;;;;;;18.73;27.90;99522.16;4415582;32;19961;-59
2021/04/06 08:38:03;;;;;;;;;;;;;;;18.78;27.86;99525.69;4416334;32;19954;-59
2021/04/06 08:40:29;;;;;;;;;;;;;;;18.86;27.73;99530.16;4413372;32;19966;-60
2021/04/06 08:42:55;;;;;;;;;;;;;;;18.78;27.77;99525.69;4415599;32;19964;-59
2021/04/06 08:45:20;;;;;;;;;;;;;;;18.85;27.79;99528.37;4414660;32;19959;-59
2021/04/06 08:47:46;;;;;;;;;;;;;;;18.86;27.69;99527.50;4414605;32;19981;-59
2021/04/06 08:50:12;;;;;;;;;;;;;;;18.91;27.67;99525.75;4414392;32;19980;-59
2021/04/06 08:52:38;;;;;;;;;;;;;;;18.90;27.69;99531.91;4416260;32;19980;-59
2021/04/06 08:55:04;;;;;;;;;;;;;;;18.91;27.73;99531.94;4415591;32;20549;-59
2021/04/06 08:57:30;;;;;;;;;;;;;;;18.94;27.67;99525.78;4415655;32;20062;-60
2021/04/06 08:59:56;;;;;;;;;;;;;;;18.95;27.68;99527.53;4414408;32;20342;-59
2021/04/06 09:02:22;;;;;;;;;;;;;;;18.98;27.63;99527.56;4413954;32;19958;-58
2021/04/06 09:04:48;;;;;;;;;;;;;;;18.96;27.57;99526.69;4413937;32;19950;-60
2021/04/06 09:07:14;;;;;;;;;;;;;;;18.95;27.66;99523.16;4414681;32;19950;-60
2021/04/06 09:09:40;;;;;;;;;;;;;;;18.98;27.67;99534.59;4413045;32;19999;-60
2021/04/06 09:12:06;;;;;;;;;;;;;;;19.02;27.56;99546.97;4414476;32;20013;-58
2021/04/06 09:14:32;;;;;;;;;;;;;;;19.00;27.59;99530.22;4415157;32;20001;-60
2021/04/06 09:16:58;;;;;;;;;;;;;;;18.96;27.61;99539.88;4415015;32;20049;-60
2021/04/06 09:19:24;;;;;;;;;;;;;;;18.98;27.67;99526.69;4414291;32;19985;-60
2021/04/06 09:21:50;;;;;;;;;;;;;;;19.03;27.60;99536.41;4413702;32;19958;-60
2021/04/06 09:24:16;;;;;;;;;;;;;;;19.04;27.55;99532.91;4415321;32;20009;-60
2021/04/06 09:26:42;;;;;;;;;;;;;;;19.05;27.61;99532.00;4415469;32;19954;-59
2021/04/06 09:29:08;;;;;;;;;;;;;;;19.07;27.52;99539.94;4416175;32;19954;-60
2021/04/06 09:31:34;;;;;;;;;;;;;;;19.06;27.59;99536.41;4419090;32;19961;-60
2021/04/06 09:34:00;;;;;;;;;;;;;;;19.04;27.49;99538.16;4418528;32;19977;-60
2021/04/06 09:36:26;;;;;;;;;;;;;;;19.06;27.57;99536.41;4417906;32;19978;-59
2021/04/06 09:38:52;;;;;;;;;;;;;;;19.05;27.57;99536.44;4418265;32;19942;-59
2021/04/06 09:41:18;;;;;;;;;;;;;;;19.03;27.73;99541.69;4416627;32;19969;-54
2021/04/06 09:43:44;;;;;;;;;;;;;;;18.52;28.01;99542.25;4418018;32;20629;-55
2021/04/06 09:46:10;;;;;;;;;;;;;;;18.67;28.24;99530.03;4418495;32;19963;-51
2021/04/06 09:48:35;;;;;;;;;;;;;;;18.72;27.73;99533.59;4416150;32;20398;-51
2021/04/06 09:51:01;;;;;;;;;;;;;;;18.93;27.76;99531.94;4417713;32;19954;-53
2021/04/06 09:53:27;;;;;;;;;;;;;;;18.95;27.82;99530.16;4417795;32;20274;-49
2021/04/06 09:55:53;;;;;;;;;;;;;;;19.01;27.52;99524.97;4416488;32;20576;-52
2021/04/06 09:58:19;;;;;;;;;;;;;;;18.96;27.69;99524.91;4417016;32;20013;-52
2021/04/06 10:00:45;;;;;;;;;;;;;;;19.02;27.62;99521.47;4417506;32;20011;-54
2021/04/06 10:03:11;;;;;;;;;;;;;;;19.02;27.80;99524.09;4395973;32;20330;-53
2021/04/06 10:05:37;;;;;;;;;;;;;;;18.95;28.15;99527.53;4386567;32;19998;-55
2021/04/06 10:08:03;;;;;;;;;;;;;;;18.96;27.98;99518.78;4400960;32;19958;-51
2021/04/06 10:10:29;;;;;;;;;;;;;;;18.86;28.06;99519.59;4403833;32;19968;-53
2021/04/06 10:12:55;;;;;;;;;;;;;;;18.90;28.10;99519.63;4397477;32;19954;-51
2021/04/06 10:15:21;;;;;;;;;;;;;;;19.00;27.94;99523.22;4386515;32;19951;-53
2021/04/06 10:17:47;;;;;;;;;;;;;;;18.95;28.00;99523.16;4397528;32;20347;-54
2021/04/06 10:20:13;;;;;;;;;;;;;;;18.95;28.03;99525.78;4402825;32;19991;-57
2021/04/06 10:22:39;;;;;;;;;;;;;;;19.01;27.93;99517.06;4410278;32;20343;-57
2021/04/06 10:25:05;;;;;;;;;;;;;;;18.87;28.25;99509.03;4418506;32;19934;-56
2021/04/06 10:27:31;;;;;;;;;;;;;;;18.95;28.04;99507.31;4409407;32;19962;-54
2021/04/06 10:29:56;;;;;;;;;;;;;;;18.98;27.99;99501.19;4402486;32;20620;-55
2021/04/06 10:32:23;;;;;;;;;;;;;;;19.09;27.91;99504.78;4407748;32;22142;-56
2021/04/06 10:34:48;;;;;;;;;;;;;;;19.08;27.84;99504.78;4417107;32;19978;-55
2021/04/06 10:37:14;;;;;;;;;;;;;;;19.10;27.97;99503.00;4415278;32;20443;-56
2021/04/06 10:39:40;;;;;;;;;;;;;;;19.14;27.80;99491.63;4416807;32;19954;-56
2021/04/06 10:42:06;;;;;;;;;;;;;;;19.09;27.84;99488.94;4416828;32;19950;-55
2021/04/06 10:44:32;;;;;;;;;;;;;;;19.05;28.01;99491.56;4417278;32;19968;-55
2021/04/06 10:46:58;;;;;;;;;;;;;;;19.05;28.09;99495.06;4417222;32;20016;-56
2021/04/06 10:49:24;;;;;;;;;;;;;;;18.94;28.29;99479.19;4418542;32;20357;-53
2021/04/06 10:51:50;;;;;;;;;;;;;;;18.78;28.64;99480.88;4417506;32;19954;-54
2021/04/06 10:54:16;;;;;;;;;;;;;;;18.73;28.77;99484.34;4414074;32;20404;-52
2021/04/06 10:56:42;;;;;;;;;;;;;;;18.84;28.69;99481.78;4416389;32;19997;-59
2021/04/06 10:59:08;;;;;;;;;;;;;;;18.70;24.92;99485.22;4411538;32;20000;-59
2021/04/06 11:01:33;;;;;;;;;;;;;;;16.99;23.88;99489.87;4401720;32;19954;-53
2021/04/06 11:04:01;;;;;;;;;;;;;;;17.50;26.47;99465.84;4415576;32;19997;-50
2021/04/06 11:06:27;;;;;;;;;;;;;;;17.94;27.14;99461.84;4416525;32;19965;-53
2021/04/06 11:08:53;;;;;;;;;;;;;;;18.17;27.00;99463.81;4415879;32;19980;-53
2021/04/06 11:11:19;;;;;;;;;;;;;;;18.28;27.16;99455.09;4415625;32;19989;-55
2021/04/06 11:13:45;;;;;;;;;;;;;;;18.30;26.88;99469.16;4415766;32;20044;-52
2021/04/06 11:16:10;;;;;;;;;;;;;;;18.54;27.34;99464.03;4415730;32;19993;-54
2021/04/06 11:18:36;;;;;;;;;;;;;;;18.74;27.04;99458.00;4415809;32;19988;-56
2021/04/06 11:21:02;;;;;;;;;;;;;;;18.92;26.55;99451.91;4415982;32;19961;-58
2021/04/06 11:23:28;;;;;;;;;;;;;;;17.14;23.71;99452.34;4414693;32;20205;-57
2021/04/06 11:25:54;;;;;;;;;;;;;;;16.84;25.74;99439.69;4415288;32;19946;-54
2021/04/06 11:28:20;;;;;;;;;;;;;;;17.58;25.51;99431.69;4414965;32;19962;-55
2021/04/06 11:30:46;;;;;;;;;;;;;;;18.11;24.83;99426.91;4415717;32;20957;-54
2021/04/06 11:33:12;;;;;;;;;;;;;;;18.43;25.24;99431.47;4401968;32;19947;-53
2021/04/06 11:35:38;;;;;;;;;;;;;;;18.49;25.72;99423.59;4402618;32;20414;-53
2021/04/06 11:38:03;;;;;;;;;;;;;;;18.58;25.83;99421.84;4414428;32;19952;-52
2021/04/06 11:40:29;;;;;;;;;;;;;;;18.62;25.88;99418.38;4416468;32;20112;-51
2021/04/06 11:42:55;;;;;;;;;;;;;;;18.67;25.82;99419.28;4416900;32;20288;-53
2021/04/06 11:45:24;;;;;;;;;;;;;;;18.66;25.98;99438.59;4415135;32;19958;-50
2021/04/06 11:47:50;;;;;;;;;;;;;;;18.64;26.09;99437.72;4418087;32;20278;-52
2021/04/06 11:50:16;;;;;;;;;;;;;;;18.45;26.39;99440.25;4415679;32;19958;-53
2021/04/06 11:52:42;;;;;;;;;;;;;;;18.37;26.64;99439.34;4416330;32;19968;-52
2021/04/06 11:55:08;;;;;;;;;;;;;;;18.31;26.95;99441.94;4408981;32;19942;-54
2021/04/06 11:57:33;;;;;;;;;;;;;;;18.28;27.17;99431.38;4415870;32;20335;-53
2021/04/06 11:59:59;;;;;;;;;;;;;;;18.26;27.23;99429.63;4414562;32;19945;-52
2021/04/06 12:02:25;;;;;;;;;;;;;;;18.34;27.36;99429.66;4415967;32;19958;-54
2021/04/06 12:04:51;;;;;;;;;;;;;;;18.47;27.29;99428.00;4415810;32;20203;-52
2021/04/06 12:07:17;;;;;;;;;;;;;;;18.61;27.15;99427.16;4413681;32;19990;-52
2021/04/06 12:09:46;;;;;;;;;;;;;;;18.62;27.20;99421.87;4416517;32;19965;-52
2021/04/06 12:12:12;;;;;;;;;;;;;;;18.78;27.14;99427.25;4417915;32;20006;-54
2021/04/06 12:14:38;;;;;;;;;;;;;;;18.92;26.99;99427.28;4416538;32;19961;-49
2021/04/06 12:17:05;;;;;;;;;;;;;;;19.07;26.80;99421.19;4417117;32;19943;-52
2021/04/06 12:19:31;;;;;;;;;;;;;;;19.21;26.65;99413.34;4416588;32;19973;-54
2021/04/06 12:21:57;;;;;;;;;;;;;;;19.32;26.60;99405.41;4416043;32;20017;-55
2021/04/06 12:24:23;;;;;;;;;;;;;;;19.37;26.59;99403.66;4416110;32;20049;-54
2021/04/06 12:26:49;;;;;;;;;;;;;;;19.42;26.46;99406.31;4417705;32;19964;-55
2021/04/06 12:29:14;;;;;;;;;;;;;;;19.38;26.61;99401.03;4416248;32;20299;-53
2021/04/06 12:31:40;;;;;;;;;;;;;;;19.42;26.50;99406.31;4408646;32;19950;-53
2021/04/06 12:34:06;;;;;;;;;;;;;;;19.44;26.61;99400.16;4414240;32;19958;-53
2021/04/06 12:36:32;;;;;;;;;;;;;;;19.43;26.57;99393.09;4416120;32;19960;-52
2021/04/06 12:38:58;;;;;;;;;;;;;;;19.49;26.54;99398.37;4412277;32;19961;-54
2021/04/06 12:41:24;;;;;;;;;;;;;;;19.46;26.51;99402.81;4413598;32;19958;-55
2021/04/06 12:43:50;;;;;;;;;;;;;;;19.58;26.52;99392.25;4414951;32;20007;-49